Time;durP1;ratioP1;P1;durP2;ratioP2;P2;SDS_P1;SDS_P2;PMS_P1;PMS_P2;Temp;Humidity;BMP_temperature;BMP_pressure;BME280_temperature;BME280_humidity;BME280_pressure;Samples;Min_cycle;Max_cycle;Signal;HPM_P1;HPM_P2
2023/12/18 00:00:10;;;;;;;11.53;7.53;;;;;;;2.14;91.02;101149.97;7222802;40;20270;31
2023/12/18 00:10:34;;;;;;;9.03;6.53;;;;;;;2.00;90.20;101143.50;7275177;39;20256;31
2023/12/18 00:21:15;;;;;;;18.03;7.00;;;;;;;1.94;90.66;101130.44;7269360;40;20257;31
2023/12/18 00:31:40;;;;;;;10.73;7.47;;;;;;;1.75;90.99;101117.97;7239245;40;20344;31
2023/12/18 00:37:16;;;;;;;10.15;7.55;;;;;;;1.81;91.85;101106.19;7181609;40;20664;31
2023/12/18 00:42:37;;;;;;;7.50;6.35;;;;;;;1.86;90.68;101101.53;7217310;40;20331;31
2023/12/18 00:47:57;;;;;;;14.40;7.40;;;;;;;1.81;90.84;101107.03;7239041;40;20398;31
2023/12/18 00:53:33;;;;;;;12.57;7.63;;;;;;;1.77;91.42;101096.59;7271141;40;20393;31
2023/12/18 00:58:53;;;;;;;8.13;6.47;;;;;;;1.88;92.11;101097.03;7245205;40;20698;31
2023/12/18 01:04:29;;;;;;;9.47;7.10;;;;;;;1.94;91.31;101094.09;7253395;40;20241;31
2023/12/18 01:10:06;;;;;;;8.60;6.80;;;;;;;2.01;91.13;101089.41;7217696;40;20267;31
2023/12/18 01:15:23;;;;;;;9.10;7.20;;;;;;;2.07;91.29;101081.13;7014819;40;21225;31
2023/12/18 01:20:58;;;;;;;8.87;6.97;;;;;;;1.99;90.16;101084.13;7202174;40;20375;31
2023/12/18 01:31:39;;;;;;;11.05;6.00;;;;;;;1.96;89.98;101081.63;7173951;40;20317;31
2023/12/18 01:42:19;;;;;;;11.60;6.80;;;;;;;2.04;91.21;101086.59;7202000;40;20332;31
2023/12/18 01:47:55;;;;;;;7.90;6.10;;;;;;;2.03;90.77;101079.53;7199097;40;20265;31
2023/12/18 01:53:30;;;;;;;8.17;6.73;;;;;;;2.05;89.95;101067.91;7201296;40;20458;31
2023/12/18 01:59:02;;;;;;;13.77;6.27;;;;;;;2.04;89.72;101065.31;7197990;40;20246;31
2023/12/18 02:04:37;;;;;;;21.93;6.57;;;;;;;1.93;90.07;101055.13;7168161;40;20313;31
2023/12/18 02:10:11;;;;;;;8.40;6.50;;;;;;;1.96;90.81;101056.81;7147655;40;20346;31
2023/12/18 02:15:46;;;;;;;8.85;6.80;;;;;;;1.94;90.84;101054.22;7186679;40;20259;31
2023/12/18 02:21:22;;;;;;;9.20;6.97;;;;;;;1.92;90.49;101045.47;7167895;40;20338;31
2023/12/18 02:26:58;;;;;;;8.05;6.60;;;;;;;1.91;89.91;101037.53;7204319;40;20239;31
2023/12/18 02:32:19;;;;;;;8.43;6.60;;;;;;;1.93;90.74;101039.19;7189936;40;20250;31
2023/12/18 02:37:40;;;;;;;9.60;6.43;;;;;;;1.98;90.86;101033.66;7207206;40;20326;31
2023/12/18 02:43:14;;;;;;;8.60;6.65;;;;;;;1.92;90.58;101024.19;7276049;39;21364;31
2023/12/18 02:48:35;;;;;;;12.37;6.73;;;;;;;1.95;90.90;101033.81;7244347;40;20824;31
2023/12/18 02:59:14;;;;;;;9.07;6.80;;;;;;;1.94;90.23;101035.59;7209316;40;20404;31
2023/12/18 03:09:53;;;;;;;10.80;7.20;;;;;;;1.92;89.93;101039.28;7309867;39;20268;31
2023/12/18 03:20:34;;;;;;;8.90;7.20;;;;;;;1.89;90.68;101026.13;7340839;39;20267;31
2023/12/18 03:30:59;;;;;;;8.97;6.97;;;;;;;1.97;89.87;101021.31;7229919;40;20306;31
2023/12/18 03:36:35;;;;;;;9.63;7.13;;;;;;;1.84;90.10;101022.78;7237649;40;20312;31
2023/12/18 03:41:57;;;;;;;9.90;7.00;;;;;;;1.87;90.28;101022.66;7186352;40;20251;31
2023/12/18 03:47:30;;;;;;;8.97;7.10;;;;;;;1.78;90.40;101014.16;7220434;40;21373;31
2023/12/18 03:53:08;;;;;;;8.75;7.10;;;;;;;1.79;89.48;101013.22;7199426;40;20243;31
2023/12/18 03:58:41;;;;;;;10.00;7.40;;;;;;;1.77;89.50;100999.13;7163415;40;20254;31
2023/12/18 04:04:02;;;;;;;9.57;7.20;;;;;;;1.62;89.45;100994.50;7246787;40;20685;31
2023/12/18 04:09:37;;;;;;;8.20;6.45;;;;;;;1.40;89.28;100993.69;7258404;40;20732;31
2023/12/18 04:14:58;;;;;;;12.57;7.10;;;;;;;1.52;90.70;100998.47;7226357;40;20394;31
2023/12/18 04:20:18;;;;;;;8.90;6.90;;;;;;;1.62;89.81;100999.81;7202973;40;20242;31
2023/12/18 04:25:55;;;;;;;8.20;6.50;;;;;;;1.68;89.85;100994.22;7211701;40;20253;31
2023/12/18 04:31:12;;;;;;;8.32;6.50;;;;;;;1.76;89.40;100985.91;7173136;40;20255;31
2023/12/18 04:36:52;;;;;;;7.93;6.33;;;;;;;1.71;89.70;100983.44;7211401;40;20273;31
2023/12/18 04:42:28;;;;;;;9.30;6.53;;;;;;;1.75;90.27;100984.19;7232480;40;20253;31
2023/12/18 04:48:03;;;;;;;8.60;6.45;;;;;;;1.88;90.55;100984.50;7169697;40;20321;31
2023/12/18 04:53:23;;;;;;;8.85;6.25;;;;;;;1.89;89.72;100994.22;7207564;40;20250;31
2023/12/18 04:59:00;;;;;;;9.80;7.20;;;;;;;1.80;90.10;100993.66;7196982;40;20242;31
2023/12/18 05:04:35;;;;;;;9.53;6.97;;;;;;;1.73;90.44;101001.97;7220930;40;20236;31
2023/12/18 05:10:10;;;;;;;9.43;6.30;;;;;;;1.79;90.16;100991.97;7218438;40;20258;31
2023/12/18 05:15:44;;;;;;;6.80;5.60;;;;;;;1.80;89.08;100998.12;7180846;40;20318;31
2023/12/18 05:21:19;;;;;;;9.07;6.37;;;;;;;1.81;90.05;101002.50;7199195;40;20311;31
2023/12/18 05:26:35;;;;;;;8.90;5.87;;;;;;;1.88;89.76;101003.13;7177890;40;20243;31
2023/12/18 05:32:12;;;;;;;6.87;5.90;;;;;;;1.88;90.48;100993.34;7230051;40;20269;31
2023/12/18 05:37:32;;;;;;;6.83;6.13;;;;;;;1.95;89.65;101001.91;7208481;40;20259;31
2023/12/18 05:48:13;;;;;;;9.30;6.33;;;;;;;1.83;89.75;100994.47;7214649;40;20370;31
2023/12/18 05:58:38;;;;;;;8.30;6.60;;;;;;;1.64;89.20;101008.56;7174620;40;20269;31
2023/12/18 06:03:58;;;;;;;7.60;5.53;;;;;;;1.62;90.06;101010.44;7238539;40;20257;31
2023/12/18 06:09:34;;;;;;;8.65;6.10;;;;;;;1.61;89.99;101014.03;7247210;40;21477;31
2023/12/18 06:14:54;;;;;;;7.40;5.70;;;;;;;1.67;89.68;101013.75;7259334;40;20335;31
2023/12/18 06:20:30;;;;;;;6.85;5.35;;;;;;;1.64;89.01;101019.19;7256332;40;20320;31
2023/12/18 06:26:06;;;;;;;10.33;5.80;;;;;;;1.52;88.45;101021.50;7214813;40;20269;31
2023/12/18 06:31:26;;;;;;;8.70;5.80;;;;;;;1.49;89.10;101019.87;7224212;40;20743;31
2023/12/18 06:36:47;;;;;;;8.53;6.20;;;;;;;1.52;89.41;101030.34;7241523;40;20377;31
2023/12/18 06:42:24;;;;;;;8.45;5.35;;;;;;;1.33;89.23;101027.59;7246204;40;20350;31
2023/12/18 06:47:44;;;;;;;8.27;5.87;;;;;;;1.44;89.87;101036.91;7240554;40;20312;31
2023/12/18 06:53:05;;;;;;;7.30;5.80;;;;;;;1.51;88.91;101041.03;7246450;40;20254;31
2023/12/18 06:58:42;;;;;;;7.70;5.30;;;;;;;1.53;88.70;101036.53;7241402;40;20239;31
2023/12/18 07:04:03;;;;;;;9.60;6.80;;;;;;;1.45;89.06;101028.84;7178200;40;20289;31
2023/12/18 07:09:24;;;;;;;19.90;11.80;;;;;;;1.46;88.96;101033.25;7159464;40;20225;31
2023/12/18 07:15:00;;;;;;;10.70;7.50;;;;;;;1.42;87.76;101030.78;7177771;40;20671;31
2023/12/18 07:20:35;;;;;;;9.30;6.20;;;;;;;1.30;88.04;101030.37;7238881;40;20705;31
2023/12/18 07:25:55;;;;;;;9.30;5.80;;;;;;;1.15;88.58;101044.28;7201345;40;20251;31
2023/12/18 07:31:30;;;;;;;11.15;8.00;;;;;;;1.22;87.90;101023.66;7195593;40;20242;31
2023/12/18 07:37:06;;;;;;;12.50;7.90;;;;;;;1.24;88.57;101032.41;7194663;40;20277;31
2023/12/18 07:47:45;;;;;;;11.07;6.77;;;;;;;1.26;88.61;101049.16;7269242;40;20273;31
2023/12/18 07:58:05;;;;;;;8.20;6.03;;;;;;;1.47;88.72;101042.09;7290830;39;20255;31
2023/12/18 08:03:40;;;;;;;8.50;6.97;;;;;;;1.47;88.94;101037.66;7256300;40;20264;31
2023/12/18 08:08:58;;;;;;;9.90;7.40;;;;;;;1.48;90.03;101036.72;6998626;40;20259;31
2023/12/18 08:14:16;;;;;;;10.70;7.50;;;;;;;1.48;89.59;101031.41;7239567;40;20802;31
2023/12/18 08:19:47;;;;;;;12.45;8.05;;;;;;;1.53;90.03;101029.44;7225721;40;20255;31
2023/12/18 08:30:28;;;;;;;12.90;8.20;;;;;;;1.64;90.82;101024.50;7216807;40;20278;31
2023/12/18 08:41:09;;;;;;;11.20;8.70;;;;;;;1.83;90.50;101029.91;7187912;40;20258;31
2023/12/18 08:46:29;;;;;;;10.70;8.40;;;;;;;2.00;90.85;101029.16;7236983;40;20832;31
2023/12/18 08:52:05;;;;;;;11.80;8.85;;;;;;;2.07;91.61;101017.31;7246565;40;20246;31
2023/12/18 08:57:41;;;;;;;11.80;8.87;;;;;;;2.18;90.62;101007.94;7225004;40;20909;31
2023/12/18 09:03:16;;;;;;;11.15;8.75;;;;;;;2.21;90.82;100997.16;7249125;40;20716;31
2023/12/18 09:08:51;;;;;;;9.97;7.50;;;;;;;2.24;91.54;100989.03;7169221;40;20383;31
2023/12/18 09:14:28;;;;;;;8.33;6.47;;;;;;;2.30;91.74;100971.06;7152003;40;20712;31
2023/12/18 09:20:03;;;;;;;8.40;6.97;;;;;;;2.42;91.62;100971.34;7156762;40;20243;31
2023/12/18 09:25:24;;;;;;;10.00;6.80;;;;;;;2.58;91.09;100985.69;7167804;40;20262;31
2023/12/18 09:31:00;;;;;;;12.27;8.80;;;;;;;2.59;90.73;100973.25;7206425;40;20442;31
2023/12/18 09:36:21;;;;;;;10.23;7.70;;;;;;;2.67;91.48;100976.41;7247286;40;20678;31
2023/12/18 09:41:42;;;;;;;11.85;9.25;;;;;;;2.70;90.88;100979.75;7265136;40;20357;31
2023/12/18 09:47:15;;;;;;;9.10;8.20;;;;;;;2.64;91.25;100977.38;7265057;40;20306;31
2023/12/18 09:52:50;;;;;;;9.75;6.75;;;;;;;2.75;91.53;100968.91;7246799;40;20834;31
2023/12/18 09:58:25;;;;;;;6.95;6.15;;;;;;;2.88;91.18;100971.81;7230602;40;20494;31
2023/12/18 10:04:01;;;;;;;8.53;7.27;;;;;;;2.97;91.50;100966.06;7206630;40;20313;31
2023/12/18 10:09:36;;;;;;;10.20;8.75;;;;;;;3.02;91.66;100961.38;7200626;40;20782;31
2023/12/18 10:14:57;;;;;;;15.50;13.70;;;;;;;3.12;90.80;100962.63;7168063;40;20281;31
2023/12/18 10:20:34;;;;;;;9.87;7.50;;;;;;;3.18;90.51;100957.00;7179250;40;20236;31
2023/12/18 10:25:54;;;;;;;9.15;7.30;;;;;;;3.29;91.00;100949.31;7140774;40;20268;31
2023/12/18 10:31:29;;;;;;;7.70;6.30;;;;;;;3.38;90.16;100948.00;7135680;40;20250;31
2023/12/18 10:37:05;;;;;;;8.70;6.73;;;;;;;3.44;91.23;100937.88;7179628;40;20255;31
2023/12/18 10:42:37;;;;;;;8.93;6.57;;;;;;;3.58;90.13;100923.84;7137068;40;20582;31
2023/12/18 10:48:12;;;;;;;7.65;6.70;;;;;;;3.70;90.08;100920.53;7161615;40;20330;31
2023/12/18 10:53:49;;;;;;;9.10;7.30;;;;;;;3.82;89.70;100911.00;7157580;40;20271;31
2023/12/18 11:04:29;;;;;;;51.65;45.90;;;;;;;4.09;91.24;100905.06;7191066;40;20600;31
2023/12/18 11:15:08;;;;;;;14.20;10.80;;;;;;;4.35;90.92;100890.25;7245581;39;21241;31
2023/12/18 11:25:48;;;;;;;9.07;7.67;;;;;;;4.50;90.07;100878.75;7250154;40;20735;31
2023/12/18 11:36:26;;;;;;;8.30;6.85;;;;;;;4.84;90.15;100874.13;7203693;40;21294;31
2023/12/18 11:41:47;;;;;;;8.37;6.80;;;;;;;5.06;89.69;100868.38;7177598;40;20686;31
2023/12/18 11:47:19;;;;;;;8.33;6.60;;;;;;;5.19;89.10;100856.00;7196975;40;20327;31
2023/12/18 11:52:55;;;;;;;9.37;7.17;;;;;;;5.30;88.64;100843.72;7188843;40;20264;31
2023/12/18 11:58:30;;;;;;;8.80;6.30;;;;;;;5.45;88.40;100836.56;7176127;40;20294;31
2023/12/18 12:04:05;;;;;;;7.75;6.25;;;;;;;5.61;87.51;100831.16;7136851;40;20274;31
2023/12/18 12:09:40;;;;;;;6.85;5.70;;;;;;;5.78;87.18;100818.44;7097939;40;20394;31
2023/12/18 12:20:22;;;;;;;6.15;4.95;;;;;;;6.20;84.87;100804.16;7207485;40;21374;31
2023/12/18 12:25:58;;;;;;;5.57;4.67;;;;;;;6.43;83.36;100799.13;7254274;40;20245;31
2023/12/18 12:31:34;;;;;;;6.27;3.80;;;;;;;6.65;80.71;100786.88;7198584;40;20769;31
2023/12/18 12:37:09;;;;;;;4.13;3.30;;;;;;;6.88;77.90;100779.97;7160131;40;20247;31
2023/12/18 12:42:43;;;;;;;6.15;4.40;;;;;;;7.09;76.76;100757.06;7160424;40;20239;31
2023/12/18 12:48:20;;;;;;;4.60;3.50;;;;;;;7.25;74.79;100762.19;7178117;40;20377;31
2023/12/18 12:53:37;;;;;;;5.93;4.30;;;;;;;7.43;74.10;100760.06;7186057;40;20246;31
2023/12/18 12:59:15;;;;;;;4.60;3.30;;;;;;;7.57;72.61;100746.53;7193489;40;20239;31
2023/12/18 13:04:36;;;;;;;3.63;3.00;;;;;;;7.66;72.33;100745.87;7207290;40;20391;31
2023/12/18 13:09:56;;;;;;;5.07;3.17;;;;;;;7.65;71.56;100745.00;7227247;40;20261;31
2023/12/18 13:15:34;;;;;;;3.70;3.07;;;;;;;7.66;71.05;100732.44;7261245;40;20313;31
2023/12/18 13:21:08;;;;;;;4.45;3.55;;;;;;;7.63;72.37;100730.81;7194132;40;20257;31
2023/12/18 13:26:39;;;;;;;4.50;3.20;;;;;;;7.72;73.45;100741.91;7179954;40;20381;31
2023/12/18 13:32:16;;;;;;;4.50;3.50;;;;;;;7.68;73.85;100735.87;7154997;40;20266;31
2023/12/18 13:37:51;;;;;;;4.20;3.45;;;;;;;7.65;72.88;100734.28;7166963;40;20698;31
2023/12/18 13:43:12;;;;;;;8.15;5.40;;;;;;;7.68;74.04;100733.19;7160387;40;20243;31
2023/12/18 13:48:46;;;;;;;7.70;5.50;;;;;;;7.66;74.11;100716.34;7208160;40;21099;31
2023/12/18 13:54:04;;;;;;;6.37;4.25;;;;;;;7.64;75.32;100715.59;7208559;40;20255;31
2023/12/18 13:59:40;;;;;;;6.90;5.40;;;;;;;7.47;77.49;100708.75;7206842;40;20296;31
2023/12/18 14:05:16;;;;;;;10.67;6.23;;;;;;;7.36;77.04;100695.28;7215718;40;20844;31
2023/12/18 14:15:37;;;;;;;8.90;6.40;;;;;;;7.31;79.85;100701.91;7211551;40;21401;31
2023/12/18 14:21:11;;;;;;;8.17;7.00;;;;;;;7.21;79.78;100689.16;7230813;40;20674;31
2023/12/18 14:31:33;;;;;;;9.40;7.00;;;;;;;7.18;81.05;100689.41;7295329;39;21493;31
2023/12/18 14:37:11;;;;;;;9.87;7.10;;;;;;;7.12;81.37;100686.28;7243900;40;20257;31
2023/12/18 14:42:44;;;;;;;12.10;9.40;;;;;;;7.04;82.06;100681.47;7251300;40;20247;31
2023/12/18 14:48:17;;;;;;;13.87;9.87;;;;;;;6.95;82.81;100679.41;7216640;40;20416;31
2023/12/18 14:58:58;;;;;;;13.23;9.03;;;;;;;6.79;83.37;100679.66;7149520;40;20296;31
2023/12/18 15:04:30;;;;;;;11.80;8.37;;;;;;;6.75;84.03;100675.47;6963009;40;21294;31
2023/12/18 15:09:51;;;;;;;11.07;8.00;;;;;;;6.77;83.34;100675.34;7186314;40;20709;31
2023/12/18 15:15:25;;;;;;;10.23;8.60;;;;;;;6.74;83.23;100670.19;7178671;40;20266;31
2023/12/18 15:20:46;;;;;;;10.63;7.73;;;;;;;6.63;83.25;100670.06;7130401;40;20706;31
2023/12/18 15:26:18;;;;;;;9.15;6.60;;;;;;;6.58;82.99;100673.06;7184468;40;20256;31
2023/12/18 15:31:54;;;;;;;10.00;6.60;;;;;;;6.45;82.53;100671.34;7182622;40;20582;31
2023/12/18 15:37:29;;;;;;;7.85;5.95;;;;;;;6.24;82.92;100677.16;7171511;40;20396;31
2023/12/18 15:43:04;;;;;;;7.30;5.75;;;;;;;6.03;82.47;100675.06;7200843;40;20442;31
2023/12/18 15:48:40;;;;;;;6.20;5.10;;;;;;;5.97;82.91;100667.47;7138724;40;20379;31
2023/12/18 15:54:15;;;;;;;12.23;8.47;;;;;;;6.12;82.41;100655.72;7154621;40;20925;31
2023/12/18 15:59:51;;;;;;;7.35;5.20;;;;;;;6.28;80.00;100656.41;7211368;40;20258;31
2023/12/18 16:05:25;;;;;;;6.50;4.20;;;;;;;6.46;79.52;100655.16;7236072;40;20507;31
2023/12/18 16:10:46;;;;;;;8.10;4.50;;;;;;;6.59;78.38;100656.03;7245313;40;20265;31
2023/12/18 16:16:06;;;;;;;4.80;3.40;;;;;;;6.65;78.25;100665.47;7263986;39;20750;31
2023/12/18 16:21:40;;;;;;;7.45;4.20;;;;;;;6.63;77.86;100643.28;7255001;40;20686;31
2023/12/18 16:27:12;;;;;;;4.55;3.20;;;;;;;6.59;78.17;100639.97;7184581;40;20377;31
2023/12/18 16:32:33;;;;;;;4.30;3.45;;;;;;;6.64;77.35;100635.16;7164866;40;20510;31
2023/12/18 16:38:04;;;;;;;4.13;2.80;;;;;;;6.57;77.70;100633.00;7196375;40;20466;31
2023/12/18 16:43:39;;;;;;;5.53;2.90;;;;;;;6.53;78.59;100627.00;7184847;40;20260;31
2023/12/18 16:49:00;;;;;;;4.17;3.23;;;;;;;6.47;79.11;100627.41;7161779;40;20267;31
2023/12/18 16:54:36;;;;;;;8.25;3.40;;;;;;;6.31;79.32;100624.09;7163270;40;20258;31
2023/12/18 16:59:57;;;;;;;3.10;2.80;;;;;;;6.24;78.92;100617.41;7203970;40;20285;31
2023/12/18 17:10:38;;;;;;;7.05;4.80;;;;;;;6.24;78.64;100612.91;7272676;40;20826;31
2023/12/18 17:20:59;;;;;;;3.80;3.20;;;;;;;6.43;78.33;100604.50;7198771;40;21307;31
2023/12/18 17:26:36;;;;;;;4.87;3.80;;;;;;;6.44;77.25;100614.25;7277711;40;20323;31
2023/12/18 17:37:15;;;;;;;5.65;3.70;;;;;;;6.37;78.04;100612.94;7314973;39;20672;31
2023/12/18 17:47:52;;;;;;;6.37;3.50;;;;;;;6.26;78.27;100627.06;7205520;40;20944;31
2023/12/18 17:53:15;;;;;;;4.67;3.67;;;;;;;6.33;78.81;100632.84;7179028;40;20243;31
2023/12/18 17:58:35;;;;;;;4.90;3.50;;;;;;;6.33;78.70;100643.56;7177900;40;20291;31
2023/12/18 18:14:21;;;;;;;4.57;3.77;;;;;;;5.99;79.01;100636.09;7302145;39;20640;31
2023/12/18 18:24:56;;;;;;;7.10;4.20;;;;;;;6.06;79.17;100648.09;7235644;40;21482;31
2023/12/18 18:30:28;;;;;;;10.15;5.70;;;;;;;6.12;79.26;100645.88;7259368;40;20243;31
2023/12/18 18:36:05;;;;;;;8.70;5.45;;;;;;;6.03;79.41;100664.37;7236239;40;20256;31
2023/12/18 18:41:23;;;;;;;7.10;4.40;;;;;;;6.00;79.55;100645.84;7238358;40;20481;31
2023/12/18 18:47:03;;;;;;;5.53;3.90;;;;;;;6.00;79.61;100644.03;7188958;40;20239;31
2023/12/18 18:52:23;;;;;;;5.30;4.10;;;;;;;6.10;79.87;100639.75;7214583;40;20305;31
2023/12/18 18:57:44;;;;;;;5.90;4.10;;;;;;;6.09;79.43;100639.88;7237058;40;20379;31
2023/12/18 19:03:21;;;;;;;5.70;3.73;;;;;;;6.10;78.96;100629.06;7245868;40;20257;31
2023/12/18 19:08:41;;;;;;;5.17;3.50;;;;;;;6.19;79.28;100627.56;7179815;40;20253;31
2023/12/18 19:14:02;;;;;;;4.80;3.63;;;;;;;6.22;78.71;100638.09;7186503;40;20242;31
2023/12/18 19:19:37;;;;;;;6.00;4.00;;;;;;;6.23;79.29;100629.94;7196966;40;20272;31
2023/12/18 19:24:54;;;;;;;5.80;4.20;;;;;;;6.28;79.04;100627.81;7134026;40;21690;31
2023/12/18 19:30:13;;;;;;;18.22;11.38;;;;;;;6.29;79.32;100617.97;7169057;40;20594;31
2023/12/18 19:40:53;;;;;;;8.70;5.70;;;;;;;6.24;78.06;100585.28;7212960;40;20804;31
2023/12/18 19:51:14;;;;;;;6.67;5.10;;;;;;;6.16;80.00;100575.13;7305748;39;21334;31
2023/12/18 20:01:55;;;;;;;19.17;13.27;;;;;;;6.10;79.03;100551.44;7299233;39;20747;31
2023/12/18 20:07:15;;;;;;;16.20;12.50;;;;;;;6.14;79.61;100552.09;7276851;39;20261;31
2023/12/18 20:12:51;;;;;;;5.70;4.30;;;;;;;6.15;79.63;100538.59;7308261;39;20705;31
2023/12/18 20:18:25;;;;;;;6.70;4.15;;;;;;;6.11;79.61;100529.06;7259701;40;20503;31
2023/12/18 20:23:44;;;;;;;5.63;3.73;;;;;;;6.15;79.87;100538.59;7243721;40;20383;31
2023/12/18 20:29:04;;;;;;;6.33;4.10;;;;;;;6.16;79.13;100551.03;7265073;40;20257;31
2023/12/18 20:34:40;;;;;;;6.40;5.00;;;;;;;6.15;79.11;100565.38;7214077;40;20285;31
2023/12/18 20:40:00;;;;;;;5.40;4.20;;;;;;;6.17;79.08;100568.81;7246750;40;20260;31
2023/12/18 20:45:37;;;;;;;6.35;3.95;;;;;;;6.15;79.44;100588.59;7248520;40;20281;31
2023/12/18 20:51:14;;;;;;;4.00;3.40;;;;;;;6.07;78.70;100629.25;7226961;40;20742;31
2023/12/18 20:56:51;;;;;;;4.23;3.13;;;;;;;6.05;78.76;100649.06;7168614;40;20277;31
2023/12/18 21:02:27;;;;;;;5.65;3.40;;;;;;;5.98;79.40;100632.56;7138971;40;20330;31
2023/12/18 21:13:08;;;;;;;8.10;3.70;;;;;;;6.14;79.56;100603.78;7225963;40;20692;31
2023/12/18 21:23:32;;;;;;;5.80;4.00;;;;;;;6.14;79.78;100571.66;7199295;40;20396;31
2023/12/18 21:29:09;;;;;;;7.00;4.50;;;;;;;6.08;79.72;100558.72;7196345;40;21386;31
2023/12/18 21:34:28;;;;;;;5.80;4.40;;;;;;;6.03;80.09;100560.84;7222149;40;20791;31
2023/12/18 21:39:49;;;;;;;5.85;4.10;;;;;;;5.97;80.24;100539.03;7232861;40;20494;31
2023/12/18 21:45:20;;;;;;;4.60;3.87;;;;;;;5.91;79.88;100518.03;7219363;40;20254;31
2023/12/18 21:56:00;;;;;;;4.70;3.40;;;;;;;5.83;80.26;100478.38;7239126;40;20849;31
2023/12/18 22:06:40;;;;;;;5.03;3.75;;;;;;;5.76;80.36;100477.06;7208604;40;20680;31
2023/12/18 22:12:00;;;;;;;4.03;3.33;;;;;;;5.76;81.05;100487.78;7276997;40;20310;31
2023/12/18 22:17:35;;;;;;;4.63;3.53;;;;;;;5.71;80.63;100481.88;7235964;39;20631;31
2023/12/18 22:23:11;;;;;;;5.65;3.20;;;;;;;5.78;79.71;100492.09;7258922;40;20253;31
2023/12/18 22:28:29;;;;;;;5.37;3.60;;;;;;;5.85;80.03;100493.38;7215883;40;20420;31
2023/12/18 22:33:49;;;;;;;6.40;3.20;;;;;;;5.85;79.94;100490.69;7206558;40;20296;31
2023/12/18 22:39:24;;;;;;;5.35;3.90;;;;;;;5.79;79.92;100467.03;7238112;40;20373;31
2023/12/18 22:44:46;;;;;;;4.55;3.60;;;;;;;5.77;79.96;100470.78;7170433;40;20836;31
2023/12/18 22:50:07;;;;;;;7.65;3.50;;;;;;;5.78;79.69;100472.50;7216758;40;20371;31
2023/12/18 22:55:43;;;;;;;3.70;3.00;;;;;;;5.77;80.43;100460.94;7209973;40;20254;31
2023/12/18 23:01:02;;;;;;;4.57;3.47;;;;;;;5.79;79.35;100452.81;7031703;40;20223;31
2023/12/18 23:06:22;;;;;;;4.60;3.00;;;;;;;5.79;80.00;100450.13;7270618;40;20244;31
2023/12/18 23:11:58;;;;;;;4.50;3.10;;;;;;;5.75;79.62;100453.97;7287156;40;20792;31
2023/12/18 23:17:19;;;;;;;5.35;3.15;;;;;;;5.74;78.87;100446.91;7297867;39;20453;31
2023/12/18 23:22:54;;;;;;;3.60;3.00;;;;;;;5.69;79.45;100431.19;7256804;40;20404;31
2023/12/18 23:33:36;;;;;;;4.20;2.90;;;;;;;5.65;78.72;100445.72;7186117;40;20274;31
2023/12/18 23:44:01;;;;;;;4.10;3.20;;;;;;;5.68;80.18;100420.59;7288451;39;21268;31
2023/12/18 23:49:36;;;;;;;5.05;4.00;;;;;;;5.71;79.10;100415.00;7295880;39;20420;31
